Villers-la-Ville, Belgium
Current Conditions -  °F | °C
As of 11:20 AM on Sunday 25 Jan 2015 (Local Time) from EBCI Reporting Station
Scattered Clouds Scattered Clouds  
Wind Chill: 28°   Ceiling: Unl
Heat Index: 36°   Visibility: 4mi
Dew Point: 34°   Wind: 10mph
Humidity: 93%   Direction: 240°WSW
Pressure: 30.45"   Gusts: NA
Location:  50.57°N, 4.52°E
Report Text: EBCI 251020Z 24009KT 6000 SCT011 02/01 Q1031 R25/290095 TEMPO BKN012
Loading
Personal Weather Stations






























Interactive Weather Map New forecast layout! Learn more

10-Day Weather Forecast

Advertisements
Track Severe Weather on mobile